createdAt,value
2018-12-30T00:00:28.615Z,26.20
2018-12-30T00:02:57.274Z,29.43
2018-12-30T00:05:25.837Z,29.67
2018-12-30T00:07:54.428Z,26.53
2018-12-30T00:10:22.963Z,28.90
2018-12-30T00:12:51.513Z,29.67
2018-12-30T00:15:20.379Z,23.50
2018-12-30T00:17:49.183Z,23.27
2018-12-30T00:20:17.985Z,23.00
2018-12-30T00:22:46.581Z,21.90
2018-12-30T00:25:15.129Z,19.57
2018-12-30T00:27:43.676Z,20.73
2018-12-30T00:30:12.202Z,17.73
2018-12-30T00:32:41.084Z,20.77
2018-12-30T00:35:09.620Z,21.07
2018-12-30T00:37:38.164Z,16.57
2018-12-30T00:40:06.860Z,16.83
2018-12-30T00:42:35.741Z,19.03
2018-12-30T00:45:04.939Z,17.23
2018-12-30T00:47:33.210Z,18.50
2018-12-30T00:50:01.760Z,18.03
2018-12-30T00:52:30.373Z,17.63
2018-12-30T00:54:58.934Z,17.03
2018-12-30T00:57:27.669Z,16.93
2018-12-30T00:59:56.242Z,16.53
2018-12-30T01:02:24.462Z,21.00
2018-12-30T01:04:53.039Z,16.73
2018-12-30T01:07:21.954Z,19.27
2018-12-30T01:09:50.525Z,16.63
2018-12-30T01:12:19.083Z,15.93
2018-12-30T01:14:47.650Z,15.07
2018-12-30T01:17:16.200Z,15.73
2018-12-30T01:19:46.015Z,15.93
2018-12-30T01:22:14.251Z,16.17
2018-12-30T01:24:42.550Z,18.97
2018-12-30T01:27:10.763Z,18.03
2018-12-30T01:29:38.997Z,22.17
2018-12-30T01:32:07.230Z,17.23
2018-12-30T01:34:35.697Z,14.90
2018-12-30T01:37:03.907Z,16.43
2018-12-30T01:39:32.446Z,16.87
2018-12-30T01:42:00.762Z,15.23
2018-12-30T01:44:29.005Z,15.70
2018-12-30T01:46:57.506Z,16.07
2018-12-30T01:49:26.374Z,18.40
2018-12-30T01:51:54.936Z,16.63
2018-12-30T01:54:23.353Z,15.87
2018-12-30T01:56:51.598Z,18.07
2018-12-30T01:59:19.815Z,14.73
2018-12-30T02:01:47.943Z,17.33
2018-12-30T02:04:16.455Z,14.77
2018-12-30T02:06:45.223Z,16.93
2018-12-30T02:09:13.421Z,15.17
2018-12-30T02:11:41.650Z,13.63
2018-12-30T02:14:10.196Z,12.97
2018-12-30T02:16:38.755Z,13.80
2018-12-30T02:19:07.369Z,16.97
2018-12-30T02:21:41.102Z,14.23
2018-12-30T02:24:05.402Z,15.73
2018-12-30T02:26:33.551Z,15.07
2018-12-30T02:29:01.788Z,14.93
2018-12-30T02:31:30.405Z,17.73
2018-12-30T02:33:58.874Z,18.13
2018-12-30T02:36:27.432Z,15.17
2018-12-30T02:38:55.682Z,17.90
2018-12-30T02:41:23.932Z,16.90
2018-12-30T02:43:52.059Z,17.40
2018-12-30T02:46:20.210Z,18.13
2018-12-30T02:48:48.361Z,18.53
2018-12-30T02:51:16.541Z,18.33
2018-12-30T02:53:44.765Z,19.30
2018-12-30T02:56:12.977Z,16.60
2018-12-30T02:58:41.904Z,19.27
2018-12-30T03:01:10.053Z,16.77
2018-12-30T03:03:38.179Z,16.67
2018-12-30T03:06:06.383Z,17.67
2018-12-30T03:08:34.607Z,14.87
2018-12-30T03:11:02.746Z,17.27
2018-12-30T03:13:30.908Z,14.53
2018-12-30T03:15:59.070Z,19.87
2018-12-30T03:18:27.275Z,16.23
2018-12-30T03:20:55.455Z,18.67
2018-12-30T03:23:23.952Z,19.07
2018-12-30T03:25:52.435Z,16.87
2018-12-30T03:28:20.906Z,17.83
2018-12-30T03:30:49.094Z,17.13
2018-12-30T03:33:17.313Z,17.20
2018-12-30T03:35:45.754Z,15.90
2018-12-30T03:38:13.899Z,17.23
2018-12-30T03:40:42.049Z,17.90
2018-12-30T03:43:10.284Z,15.57
2018-12-30T03:45:38.410Z,15.27
2018-12-30T03:48:06.895Z,17.60
2018-12-30T03:50:35.062Z,15.03
2018-12-30T03:53:03.212Z,18.20
2018-12-30T03:55:31.381Z,15.83
2018-12-30T03:57:59.810Z,16.30
2018-12-30T04:00:27.975Z,16.60
2018-12-30T04:02:56.119Z,16.17
2018-12-30T04:05:24.261Z,19.73
2018-12-30T04:07:52.405Z,17.57
2018-12-30T04:10:20.905Z,16.00
2018-12-30T04:12:49.023Z,17.67
2018-12-30T04:15:17.588Z,16.90
2018-12-30T04:17:45.710Z,17.53
2018-12-30T04:20:13.879Z,17.13
2018-12-30T04:22:42.026Z,18.47
2018-12-30T04:25:10.448Z,14.87
2018-12-30T04:27:38.633Z,17.30
2018-12-30T04:30:06.950Z,16.67
2018-12-30T04:32:35.431Z,16.37
2018-12-30T04:35:04.470Z,17.57
2018-12-30T04:37:32.644Z,15.77
2018-12-30T04:40:00.780Z,17.87
2018-12-30T04:42:28.928Z,18.63
2018-12-30T04:44:57.370Z,20.17
2018-12-30T04:47:25.838Z,20.20
2018-12-30T04:49:54.291Z,21.40
2018-12-30T04:52:25.898Z,19.47
2018-12-30T04:54:52.318Z,19.20
2018-12-30T04:57:20.507Z,22.57
2018-12-30T04:59:48.975Z,19.13
2018-12-30T05:02:17.104Z,20.27
2018-12-30T05:04:45.512Z,23.33
2018-12-30T05:07:14.003Z,21.33
2018-12-30T05:09:42.164Z,20.37
2018-12-30T05:12:10.341Z,21.83
2018-12-30T05:14:38.824Z,22.63
2018-12-30T05:17:06.958Z,22.07
2018-12-30T05:19:35.486Z,20.57
2018-12-30T05:22:03.706Z,19.47
2018-12-30T05:24:31.853Z,23.03
2018-12-30T05:27:00.342Z,18.97
2018-12-30T05:29:28.821Z,19.73
2018-12-30T05:31:57.000Z,20.80
2018-12-30T05:34:25.151Z,20.40
2018-12-30T05:36:53.285Z,21.93
2018-12-30T05:39:21.454Z,18.87
2018-12-30T05:41:49.588Z,22.33
2018-12-30T05:44:17.752Z,18.53
2018-12-30T05:46:45.914Z,20.60
2018-12-30T05:49:14.127Z,19.23
2018-12-30T05:51:42.292Z,18.77
2018-12-30T05:54:10.451Z,18.13
2018-12-30T05:56:38.927Z,20.47
2018-12-30T05:59:07.438Z,20.33
2018-12-30T06:01:35.572Z,18.80
2018-12-30T06:04:03.712Z,22.10
2018-12-30T06:06:31.871Z,20.53
2018-12-30T06:09:00.010Z,23.73
2018-12-30T06:11:28.175Z,20.13
2018-12-30T06:13:56.326Z,23.03
2018-12-30T06:16:24.821Z,18.97
2018-12-30T06:18:52.975Z,21.80
2018-12-30T06:21:21.565Z,30.90
2018-12-30T06:23:50.024Z,21.53
2018-12-30T06:26:18.185Z,21.53
2018-12-30T06:28:46.410Z,18.60
2018-12-30T06:31:14.552Z,20.13
2018-12-30T06:33:42.728Z,18.27
2018-12-30T06:36:10.896Z,20.23
2018-12-30T06:38:39.405Z,20.93
2018-12-30T06:41:07.876Z,22.37
2018-12-30T06:43:36.377Z,23.03
2018-12-30T06:46:04.592Z,23.70
2018-12-30T06:48:32.776Z,22.73
2018-12-30T06:51:00.941Z,21.97
2018-12-30T06:53:29.095Z,23.03
2018-12-30T06:55:57.218Z,21.17
2018-12-30T06:58:25.401Z,21.53
2018-12-30T07:00:53.565Z,22.37
2018-12-30T07:03:21.719Z,23.07
2018-12-30T07:05:49.968Z,24.90
2018-12-30T07:08:18.401Z,21.13
2018-12-30T07:10:46.916Z,27.43
2018-12-30T07:13:15.129Z,28.73
2018-12-30T07:15:43.293Z,28.43
2018-12-30T07:18:11.425Z,26.80
2018-12-30T07:20:39.571Z,23.73
2018-12-30T07:23:07.744Z,26.00
2018-12-30T07:25:35.898Z,31.77
2018-12-30T07:28:04.392Z,25.50
2018-12-30T07:30:32.960Z,22.60
2018-12-30T07:33:01.086Z,24.60
2018-12-30T07:35:29.267Z,26.97
2018-12-30T07:37:57.437Z,28.43
2018-12-30T07:40:25.596Z,33.27
2018-12-30T07:42:53.746Z,31.83
2018-12-30T07:45:22.234Z,28.33
2018-12-30T07:47:50.374Z,31.63
2018-12-30T07:50:18.887Z,28.80
2018-12-30T07:52:47.651Z,25.80
2018-12-30T07:55:15.802Z,28.37
2018-12-30T07:57:43.938Z,29.57
2018-12-30T08:00:12.148Z,26.60
2018-12-30T08:02:40.542Z,21.67
2018-12-30T08:05:08.691Z,23.83
2018-12-30T08:07:36.880Z,23.60
2018-12-30T08:10:05.856Z,27.33
2018-12-30T08:12:34.003Z,22.53
2018-12-30T08:15:02.170Z,25.27
2018-12-30T08:17:30.678Z,26.03
2018-12-30T08:19:58.830Z,25.30
2018-12-30T08:22:27.310Z,24.13
2018-12-30T08:24:55.430Z,27.23
2018-12-30T08:27:23.905Z,23.00
2018-12-30T08:29:52.065Z,26.50
2018-12-30T08:32:20.286Z,26.47
2018-12-30T08:34:48.700Z,26.70
2018-12-30T08:37:16.871Z,28.40
2018-12-30T08:39:45.017Z,26.70
2018-12-30T08:42:13.567Z,22.93
2018-12-30T08:44:42.379Z,27.57
2018-12-30T08:47:10.506Z,23.00
2018-12-30T08:49:38.688Z,25.07
2018-12-30T08:52:06.849Z,23.93
2018-12-30T08:54:35.013Z,20.73
2018-12-30T08:57:03.177Z,23.23
2018-12-30T08:59:31.320Z,24.07
2018-12-30T09:01:59.484Z,27.00
2018-12-30T09:04:27.893Z,24.37
2018-12-30T09:06:56.370Z,25.13
2018-12-30T09:09:24.535Z,23.77
2018-12-30T09:11:52.689Z,25.13
2018-12-30T09:14:20.958Z,23.13
2018-12-30T09:16:49.150Z,26.53
2018-12-30T09:19:17.301Z,29.83
2018-12-30T09:21:45.435Z,24.07
2018-12-30T09:24:13.612Z,23.87
2018-12-30T09:26:41.754Z,27.67
2018-12-30T09:29:09.965Z,23.00
2018-12-30T09:31:38.138Z,23.83
2018-12-30T09:34:06.276Z,27.50
2018-12-30T09:36:34.438Z,24.20
2018-12-30T09:39:02.649Z,25.07
2018-12-30T09:41:30.796Z,27.80
2018-12-30T09:43:59.305Z,24.83
2018-12-30T09:46:27.753Z,24.87
2018-12-30T09:48:55.988Z,24.47
2018-12-30T09:51:24.112Z,24.67
2018-12-30T09:53:52.275Z,30.23
2018-12-30T09:56:21.060Z,30.07
2018-12-30T09:58:49.549Z,31.43
2018-12-30T10:01:17.712Z,29.73
2018-12-30T10:03:45.850Z,25.53
2018-12-30T10:06:14.277Z,28.73
2018-12-30T10:08:42.419Z,25.80
2018-12-30T10:11:10.591Z,24.53
2018-12-30T10:13:38.740Z,26.57
2018-12-30T10:16:07.164Z,23.57
2018-12-30T10:18:35.323Z,28.57
2018-12-30T10:21:03.951Z,30.30
2018-12-30T10:23:32.103Z,25.60
2018-12-30T10:26:00.293Z,26.47
2018-12-30T10:28:28.442Z,23.33
2018-12-30T10:30:56.701Z,27.37
2018-12-30T10:33:24.831Z,28.27
2018-12-30T10:35:53.282Z,25.77
2018-12-30T10:38:21.422Z,27.67
2018-12-30T10:40:49.580Z,26.20
2018-12-30T10:43:17.740Z,25.50
2018-12-30T10:45:46.226Z,30.20
2018-12-30T10:48:14.514Z,27.53
2018-12-30T10:50:42.710Z,27.27
2018-12-30T10:53:10.884Z,29.03
2018-12-30T10:55:39.450Z,32.10
2018-12-30T10:58:07.658Z,24.60
2018-12-30T11:00:35.796Z,28.13
2018-12-30T11:03:03.914Z,27.80
2018-12-30T11:05:32.084Z,27.70
2018-12-30T11:08:00.261Z,30.77
2018-12-30T11:10:28.795Z,25.77
2018-12-30T11:12:56.959Z,25.53
2018-12-30T11:15:25.113Z,24.97
2018-12-30T11:17:53.314Z,26.73
2018-12-30T11:20:21.497Z,24.07
2018-12-30T11:22:50.026Z,23.37
2018-12-30T11:25:18.484Z,21.70
2018-12-30T11:27:46.976Z,25.97
2018-12-30T11:30:15.140Z,25.07
2018-12-30T11:32:43.304Z,27.10
2018-12-30T11:35:11.803Z,26.40
2018-12-30T11:37:39.975Z,27.73
2018-12-30T11:40:08.123Z,30.47
2018-12-30T11:42:36.345Z,30.67
2018-12-30T11:45:05.181Z,27.73
2018-12-30T11:47:33.346Z,27.97
2018-12-30T11:50:01.503Z,30.40
2018-12-30T11:52:30.156Z,26.80
2018-12-30T11:54:58.427Z,27.77
2018-12-30T11:57:26.602Z,46.80
2018-12-30T11:59:54.743Z,48.10
2018-12-30T12:02:24.265Z,40.33
2018-12-30T12:04:52.633Z,33.70
2018-12-30T12:07:20.784Z,29.83
2018-12-30T12:09:48.927Z,31.53
2018-12-30T12:12:17.096Z,25.70
2018-12-30T12:14:45.235Z,26.23
2018-12-30T12:17:13.377Z,26.80
2018-12-30T12:19:41.565Z,26.13
2018-12-30T12:22:09.703Z,25.97
2018-12-30T12:24:38.174Z,21.53
2018-12-30T12:27:06.427Z,26.57
2018-12-30T12:29:34.656Z,22.33
2018-12-30T12:32:02.839Z,23.37
2018-12-30T12:34:30.971Z,20.77
2018-12-30T12:36:59.443Z,21.37
2018-12-30T12:39:27.590Z,24.67
2018-12-30T12:41:55.744Z,17.90
2018-12-30T12:44:23.896Z,19.80
2018-12-30T12:46:52.308Z,19.73
2018-12-30T12:49:20.476Z,17.87
2018-12-30T12:51:48.598Z,20.73
2018-12-30T12:54:16.766Z,18.70
2018-12-30T12:56:46.940Z,20.07
2018-12-30T12:59:15.115Z,19.13
2018-12-30T13:01:43.242Z,19.60
2018-12-30T13:04:11.739Z,21.20
2018-12-30T13:06:39.913Z,19.57
2018-12-30T13:09:08.684Z,18.43
2018-12-30T13:11:37.048Z,19.63
2018-12-30T13:14:05.201Z,18.07
2018-12-30T13:16:33.366Z,20.40
2018-12-30T13:19:01.503Z,22.90
2018-12-30T13:21:29.981Z,16.97
2018-12-30T13:23:58.143Z,18.13
2018-12-30T13:26:26.287Z,19.07
2018-12-30T13:28:54.762Z,18.10
2018-12-30T13:31:24.620Z,21.83
2018-12-30T13:33:52.791Z,21.63
2018-12-30T13:36:20.928Z,17.63
2018-12-30T13:38:49.099Z,18.53
2018-12-30T13:41:17.245Z,20.80
2018-12-30T13:43:45.413Z,18.63
2018-12-30T13:46:13.569Z,17.73
2018-12-30T13:48:41.710Z,23.07
2018-12-30T13:51:09.866Z,14.93
2018-12-30T13:53:38.332Z,17.87
2018-12-30T13:56:06.839Z,20.90
2018-12-30T13:58:34.974Z,18.20
2018-12-30T14:01:03.113Z,21.37
2018-12-30T14:03:31.285Z,20.60
2018-12-30T14:05:59.705Z,23.63
2018-12-30T14:08:27.882Z,21.07
2018-12-30T14:10:56.348Z,21.30
2018-12-30T14:13:24.831Z,20.43
2018-12-30T14:15:52.986Z,19.23
2018-12-30T14:18:21.123Z,21.43
2018-12-30T14:20:49.289Z,19.23
2018-12-30T14:23:17.459Z,16.57
2018-12-30T14:25:45.611Z,19.23
2018-12-30T14:28:13.741Z,21.07
2018-12-30T14:30:41.907Z,21.30
2018-12-30T14:33:10.060Z,23.13
2018-12-30T14:35:38.224Z,21.23
2018-12-30T14:38:06.391Z,23.87
2018-12-30T14:40:34.579Z,18.80
2018-12-30T14:43:02.727Z,15.27
2018-12-30T14:45:30.875Z,18.20
2018-12-30T14:47:59.358Z,17.03
2018-12-30T14:50:27.503Z,19.97
2018-12-30T14:52:55.649Z,17.80
2018-12-30T14:55:23.877Z,20.50
2018-12-30T14:57:52.012Z,23.97
2018-12-30T15:00:20.215Z,18.00
2018-12-30T15:02:48.462Z,20.13
2018-12-30T15:05:16.626Z,19.57
2018-12-30T15:07:44.774Z,18.77
2018-12-30T15:10:12.910Z,20.30
2018-12-30T15:12:41.062Z,18.37
2018-12-30T15:15:09.277Z,19.97
2018-12-30T15:17:37.459Z,19.87
2018-12-30T15:20:07.054Z,17.27
2018-12-30T15:22:35.544Z,16.57
2018-12-30T15:25:11.376Z,17.20
2018-12-30T15:27:34.144Z,19.93
2018-12-30T15:30:02.628Z,21.40
2018-12-30T15:32:30.875Z,26.53
2018-12-30T15:34:59.009Z,20.90
2018-12-30T15:37:27.176Z,20.93
2018-12-30T15:39:55.319Z,26.50
2018-12-30T15:42:23.484Z,21.87
2018-12-30T15:44:51.657Z,20.23
2018-12-30T15:47:19.778Z,22.87
2018-12-30T15:49:47.951Z,17.53
2018-12-30T15:52:16.396Z,19.53
2018-12-30T15:54:44.884Z,20.60
2018-12-30T15:57:13.036Z,17.70
2018-12-30T15:59:41.521Z,20.23
2018-12-30T16:02:09.659Z,21.33
2018-12-30T16:04:37.802Z,17.20
2018-12-30T16:07:05.980Z,17.47
2018-12-30T16:09:34.149Z,15.53
2018-12-30T16:12:02.596Z,17.60
2018-12-30T16:14:30.748Z,19.50
2018-12-30T16:16:59.203Z,21.87
2018-12-30T16:19:27.365Z,14.87
2018-12-30T16:21:56.505Z,19.70
2018-12-30T16:24:24.761Z,25.67
2018-12-30T16:26:54.039Z,21.17
2018-12-30T16:29:22.200Z,21.00
2018-12-30T16:31:50.339Z,26.43
2018-12-30T16:34:18.479Z,23.97
2018-12-30T16:36:46.662Z,23.37
2018-12-30T16:39:14.823Z,21.93
2018-12-30T16:41:42.960Z,23.47
2018-12-30T16:44:11.135Z,22.87
2018-12-30T16:46:39.288Z,20.30
2018-12-30T16:49:07.795Z,21.63
2018-12-30T16:51:36.204Z,23.50
2018-12-30T16:54:04.715Z,21.70
2018-12-30T16:56:32.852Z,21.27
2018-12-30T16:59:01.049Z,21.43
2018-12-30T17:01:29.185Z,21.83
2018-12-30T17:03:57.356Z,20.97
2018-12-30T17:06:25.540Z,17.83
2018-12-30T17:08:54.033Z,22.30
2018-12-30T17:11:22.199Z,18.10
2018-12-30T17:13:50.618Z,24.47
2018-12-30T17:16:19.105Z,21.70
2018-12-30T17:18:47.593Z,16.80
2018-12-30T17:21:16.065Z,20.47
2018-12-30T17:23:44.558Z,23.80
2018-12-30T17:26:12.686Z,19.90
2018-12-30T17:28:40.874Z,23.03
2018-12-30T17:31:09.012Z,24.47
2018-12-30T17:33:37.163Z,21.63
2018-12-30T17:36:05.341Z,19.47
2018-12-30T17:38:33.493Z,15.97
2018-12-30T17:41:01.964Z,20.50
2018-12-30T17:43:30.308Z,17.00
2018-12-30T17:45:58.440Z,18.87
2018-12-30T17:48:27.192Z,16.20
2018-12-30T17:50:55.691Z,17.73
2018-12-30T17:53:23.820Z,19.53
2018-12-30T17:55:52.331Z,21.50
2018-12-30T17:58:20.488Z,19.33
2018-12-30T18:00:48.955Z,19.07
2018-12-30T18:03:17.535Z,17.40
2018-12-30T18:05:45.654Z,20.70
2018-12-30T18:08:13.805Z,19.10
2018-12-30T18:10:41.983Z,17.23
2018-12-30T18:13:10.140Z,18.87
2018-12-30T18:15:38.284Z,18.27
2018-12-30T18:18:06.444Z,18.40
2018-12-30T18:20:34.587Z,17.80
2018-12-30T18:23:02.736Z,21.23
2018-12-30T18:25:30.861Z,16.50
2018-12-30T18:27:59.015Z,19.73
2018-12-30T18:30:27.501Z,19.37
2018-12-30T18:32:55.653Z,21.97
2018-12-30T18:35:23.824Z,19.23
2018-12-30T18:37:51.977Z,20.33
2018-12-30T18:40:20.142Z,22.07
2018-12-30T18:42:48.266Z,17.90
2018-12-30T18:45:16.432Z,19.80
2018-12-30T18:47:44.571Z,22.07
2018-12-30T18:50:12.749Z,20.33
2018-12-30T18:52:40.888Z,21.10
2018-12-30T18:55:09.027Z,18.37
2018-12-30T18:57:37.191Z,20.60
2018-12-30T19:00:06.454Z,22.17
2018-12-30T19:02:34.618Z,19.43
2018-12-30T19:05:03.054Z,17.57
2018-12-30T19:07:31.536Z,18.87
2018-12-30T19:09:59.677Z,19.83
2018-12-30T19:12:27.835Z,21.20
2018-12-30T19:14:55.996Z,23.73
2018-12-30T19:17:24.141Z,25.47
2018-12-30T19:19:52.664Z,22.47
2018-12-30T19:22:21.132Z,18.10
2018-12-30T19:24:49.294Z,20.57
2018-12-30T19:27:17.515Z,21.37
2018-12-30T19:29:45.657Z,17.53
2018-12-30T19:32:14.189Z,20.17
2018-12-30T19:34:42.429Z,20.70
2018-12-30T19:37:10.585Z,18.60
2018-12-30T19:39:39.054Z,16.90
2018-12-30T19:42:07.559Z,18.70
2018-12-30T19:44:35.716Z,20.23
2018-12-30T19:47:03.850Z,15.83
2018-12-30T19:49:32.007Z,19.03
2018-12-30T19:52:00.203Z,20.57
2018-12-30T19:54:28.367Z,21.63
2018-12-30T19:56:56.837Z,19.30
2018-12-30T19:59:25.310Z,22.73
2018-12-30T20:01:53.478Z,17.77
2018-12-30T20:04:21.619Z,19.00
2018-12-30T20:06:49.785Z,18.63
2018-12-30T20:09:17.926Z,18.27
2018-12-30T20:11:46.088Z,18.67
2018-12-30T20:14:14.250Z,20.17
2018-12-30T20:16:42.427Z,18.73
2018-12-30T20:19:10.569Z,20.67
2018-12-30T20:21:38.984Z,23.00
2018-12-30T20:24:07.469Z,20.57
2018-12-30T20:26:35.618Z,23.30
2018-12-30T20:29:03.851Z,22.47
2018-12-30T20:31:31.989Z,20.70
2018-12-30T20:34:00.157Z,23.87
2018-12-30T20:36:28.625Z,18.23
2018-12-30T20:38:58.478Z,19.47
2018-12-30T20:41:26.864Z,20.93
2018-12-30T20:43:55.023Z,20.07
2018-12-30T20:46:24.318Z,22.37
2018-12-30T20:48:52.795Z,20.87
2018-12-30T20:51:20.930Z,21.27
2018-12-30T20:53:49.442Z,21.57
2018-12-30T20:56:18.240Z,22.53
2018-12-30T20:58:46.709Z,32.87
2018-12-30T21:01:14.882Z,22.93
2018-12-30T21:03:43.288Z,23.33
2018-12-30T21:06:11.527Z,25.93
2018-12-30T21:08:39.672Z,28.27
2018-12-30T21:11:07.807Z,26.20
2018-12-30T21:13:35.958Z,29.37
2018-12-30T21:16:04.176Z,21.50
2018-12-30T21:18:32.676Z,22.90
2018-12-30T21:21:00.801Z,21.10
2018-12-30T21:23:29.279Z,23.40
2018-12-30T21:25:57.439Z,26.33
2018-12-30T21:28:25.916Z,22.50
2018-12-30T21:30:54.078Z,24.73
2018-12-30T21:33:22.253Z,24.53
2018-12-30T21:35:50.416Z,25.67
2018-12-30T21:38:18.908Z,23.47
2018-12-30T21:40:47.054Z,23.60
2018-12-30T21:43:15.532Z,20.13
2018-12-30T21:45:44.006Z,25.07
2018-12-30T21:48:12.185Z,22.60
2018-12-30T21:50:40.321Z,20.23
2018-12-30T21:53:08.790Z,22.40
2018-12-30T21:55:37.028Z,25.27
2018-12-30T21:58:05.211Z,21.60
2018-12-30T22:00:33.365Z,19.27
2018-12-30T22:03:01.551Z,25.97
2018-12-30T22:05:29.708Z,19.27
2018-12-30T22:07:57.855Z,21.13
2018-12-30T22:10:26.018Z,18.03
2018-12-30T22:12:54.511Z,18.70
2018-12-30T22:15:22.721Z,16.00
2018-12-30T22:17:50.918Z,19.20
2018-12-30T22:20:19.054Z,20.83
2018-12-30T22:22:47.237Z,19.60
2018-12-30T22:25:15.440Z,20.23
2018-12-30T22:27:43.574Z,17.03
2018-12-30T22:30:11.731Z,18.53
2018-12-30T22:32:39.875Z,17.40
2018-12-30T22:35:08.351Z,17.23
2018-12-30T22:37:36.533Z,17.47
2018-12-30T22:40:07.262Z,16.57
2018-12-30T22:42:35.404Z,18.10
2018-12-30T22:45:04.050Z,17.83
2018-12-30T22:47:32.189Z,17.73
2018-12-30T22:50:00.680Z,14.87
2018-12-30T22:52:28.853Z,20.03
2018-12-30T22:54:57.325Z,17.30
2018-12-30T22:57:25.807Z,19.33
2018-12-30T22:59:53.971Z,15.93
2018-12-30T23:02:22.105Z,19.13
2018-12-30T23:04:50.258Z,16.90
2018-12-30T23:07:18.430Z,17.60
2018-12-30T23:09:46.888Z,17.97
2018-12-30T23:12:15.389Z,17.77
2018-12-30T23:14:43.594Z,20.67
2018-12-30T23:17:11.767Z,17.07
2018-12-30T23:19:39.926Z,18.27
2018-12-30T23:22:08.060Z,19.67
2018-12-30T23:24:36.208Z,18.77
2018-12-30T23:27:04.437Z,16.80
2018-12-30T23:29:32.652Z,18.17
2018-12-30T23:32:01.120Z,19.57
2018-12-30T23:34:29.297Z,17.30
2018-12-30T23:36:57.747Z,14.47
2018-12-30T23:39:26.160Z,18.87
2018-12-30T23:41:54.303Z,17.87
2018-12-30T23:44:22.499Z,18.00
2018-12-30T23:46:50.623Z,19.00
2018-12-30T23:49:18.754Z,16.70
2018-12-30T23:51:46.909Z,16.63
2018-12-30T23:54:15.127Z,17.97
2018-12-30T23:56:43.292Z,19.93
2018-12-30T23:59:11.756Z,19.83
